Portada
METAR-TAF:

METAR-TAF

Aeroports :

Khartum, Sudan

latitud: 15-36N, longitud: 032-33E, altitud: 382 m

Observació

L'informe es va fer fa 20 minuts, a les 22:30 UTC
Vent 10 kt del Sud
Temperatura 34°C
Humitat 25%
Pressió 1009 hPa
Visibilitat 10 km o més
sense núvols per sota de 1500 mi sense presència de cumulonimbus.

METAR: HSSS 152230Z 18010KT CAVOK 34/11 Q1009 NOSIG

Hora: 01:50 (22:50 UTC)

Pronòstic

L'informe es va fer fa 5 hores i 50 minuts, a les 17:00 UTC
Pronòstic vàlid del 15 a les 18 UTC al 16 a les 24 UTC
Vent 8 kt del Sud/Sud-Oest amb ràfegues de 20 kt
Visibilitat 10 km o més
sense núvols per sota de 1500 mi sense presència de cumulonimbus.
Temporalment
l' 15 a les 18 UTC al 15 a les 21 UTC
Vent 2 kt amb direcció variable

TAF: HSSS 151700Z 1518/1624 21008G20KT CAVOK TEMPO 1518/1521 VRB02KT

Observacions i pronòstics meteorològics de més de 4000 aeroports (METAR i TAF).

Les estacions disponibles són els punts grocs i vermells al mapa.

Posi el ratolí al punt desitjat per veure el nom de l'estació.

Feu clic per veure les observacions i els pronòstics meteorològics.

Per canviar el mapa: feu clic els botons verds amb una creu de color negre per apropar; al botó verd amb un guió per allunyar la imatge; o en les fletxes verdes per a mapes adjacents.


METAR-TAF: